Observation data for Guthrie on 03/12/2018      Previous  Date  Next       Current Mesonet Observations  Soil Data  Daily Summary Page  Observations in Plain Language
KPFS 120500Z 02005KT 05/M07 A3034 RMK A01 T00451074  RH  042%=      5-min Rain = 0
KPFS 120505Z 02006KT 04/M08 A3034 RMK A01 T00441075  RH  042%=      5-min Rain = 0
KPFS 120510Z 01007KT 04/M07 A3034 RMK A01 T00441074  RH  042%=      5-min Rain = 0
KPFS 120515Z 02006KT 04/M07 A3034 RMK A01 T00441074  RH  042%=      5-min Rain = 0
KPFS 120520Z 01006KT 04/M08 A3034 RMK A01 T00411076  RH  043%=      5-min Rain = 0
KPFS 120525Z 00006KT 04/M08 A3034 RMK A01 T00381076  RH  044%=      5-min Rain = 0
KPFS 120530Z 00005KT 04/M08 A3034 RMK A01 T00381075  RH  044%=      5-min Rain = 0
KPFS 120535Z 00006KT 04/M07 A3034 RMK A01 T00401074  RH  044%=      5-min Rain = 0
KPFS 120540Z 01007KT 04/M07 A3034 RMK A01 T00411074  RH  043%=      5-min Rain = 0
KPFS 120545Z 01004KT 04/M07 A3035 RMK A01 T00421073  RH  043%=      5-min Rain = 0
KPFS 120550Z 01005KT 04/M07 A3035 RMK A01 T00411073  RH  044%=      5-min Rain = 0
KPFS 120555Z 00006KT 04/M07 A3035 RMK A01 T00421072  RH  044%=      5-min Rain = 0
KPFS 120600Z 01004KT 04/M07 A3035 RMK A01 T00411072  RH  044%=      5-min Rain = 0
KPFS 120605Z 35004KT 04/M07 A3035 RMK A01 T00421071  RH  044%=      5-min Rain = 0
KPFS 120610Z 35003KT 04/M07 A3035 RMK A01 T00411072  RH  044%=      5-min Rain = 0
KPFS 120615Z 34000KT 04/M07 A3035 RMK A01 T00411071  RH  045%=      5-min Rain = 0
KPFS 120620Z 35001KT 04/M07 A3035 RMK A01 T00431070  RH  044%=      5-min Rain = 0
KPFS 120625Z 01003KT 04/M07 A3035 RMK A01 T00431069  RH  044%=      5-min Rain = 0
KPFS 120630Z 02005KT 04/M07 A3035 RMK A01 T00431068  RH  045%=      5-min Rain = 0
KPFS 120635Z 02006KT 04/M07 A3035 RMK A01 T00411068  RH  046%=      5-min Rain = 0
KPFS 120640Z 03007KT 04/M07 A3035 RMK A01 T00381067  RH  047%=      5-min Rain = 0
KPFS 120645Z 04006KT 04/M06 A3035 RMK A01 T00391064  RH  047%=      5-min Rain = 0
KPFS 120650Z 04005KT 04/M06 A3035 RMK A01 T00441061  RH  047%=      5-min Rain = 0
KPFS 120655Z 05005KT 05/M06 A3034 RMK A01 T00451060  RH  047%=      5-min Rain = 0
KPFS 120700Z 05004KT 05/M06 A3035 RMK A01 T00481058  RH  046%=      5-min Rain = 0
KPFS 120705Z 02004KT 05/M06 A3035 RMK A01 T00491059  RH  046%=      5-min Rain = 0
KPFS 120710Z 00003KT 05/M06 A3035 RMK A01 T00471061  RH  046%=      5-min Rain = 0
KPFS 120715Z 35003KT 04/M07 A3035 RMK A01 T00351071  RH  046%=      5-min Rain = 0
KPFS 120720Z 35002KT 03/M07 A3035 RMK A01 T00301069  RH  049%=      5-min Rain = 0
KPFS 120725Z 32002KT 03/M07 A3036 RMK A01 T00321065  RH  049%=      5-min Rain = 0
KPFS 120730Z 31003KT 03/M07 A3036 RMK A01 T00321068  RH  048%=      5-min Rain = 0
KPFS 120735Z 31003KT 03/M07 A3036 RMK A01 T00321067  RH  049%=      5-min Rain = 0
KPFS 120740Z 32003KT 03/M07 A3036 RMK A01 T00331067  RH  049%=      5-min Rain = 0
KPFS 120745Z 33003KT 03/M07 A3036 RMK A01 T00331065  RH  049%=      5-min Rain = 0
KPFS 120750Z 34003KT 03/M06 A3036 RMK A01 T00331064  RH  050%=      5-min Rain = 0
KPFS 120755Z 35003KT 03/M07 A3036 RMK A01 T00311065  RH  050%=      5-min Rain = 0
KPFS 120800Z 34002KT 03/M06 A3036 RMK A01 T00301064  RH  051%=      5-min Rain = 0
KPFS 120805Z 34003KT 03/M06 A3036 RMK A01 T00311063  RH  051%=      5-min Rain = 0
KPFS 120810Z 34003KT 03/M06 A3036 RMK A01 T00291063  RH  051%=      5-min Rain = 0
KPFS 120815Z 34003KT 03/M06 A3036 RMK A01 T00301063  RH  051%=      5-min Rain = 0
KPFS 120820Z 33003KT 03/M06 A3036 RMK A01 T00291063  RH  052%=      5-min Rain = 0
KPFS 120825Z 30002KT 03/M06 A3037 RMK A01 T00291062  RH  052%=      5-min Rain = 0
KPFS 120830Z 31001KT 03/M06 A3036 RMK A01 T00301062  RH  051%=      5-min Rain = 0
KPFS 120835Z 31002KT 03/M06 A3036 RMK A01 T00311061  RH  051%=      5-min Rain = 0
KPFS 120840Z 32002KT 03/M06 A3036 RMK A01 T00301062  RH  051%=      5-min Rain = 0
KPFS 120845Z 33003KT 03/M06 A3036 RMK A01 T00271064  RH  052%=      5-min Rain = 0
KPFS 120850Z 36003KT 02/M06 A3036 RMK A01 T00231064  RH  053%=      5-min Rain = 0
KPFS 120855Z 36004KT 02/M06 A3036 RMK A01 T00221061  RH  055%=      5-min Rain = 0
KPFS 120900Z 36004KT 03/M06 A3036 RMK A01 T00251060  RH  054%=      5-min Rain = 0
KPFS 120905Z 35004KT 03/M06 A3036 RMK A01 T00281060  RH  053%=      5-min Rain = 0
KPFS 120910Z 35004KT 03/M06 A3036 RMK A01 T00261061  RH  053%=      5-min Rain = 0
KPFS 120915Z 36003KT 03/M06 A3036 RMK A01 T00251061  RH  054%=      5-min Rain = 0
KPFS 120920Z 01004KT 02/M06 A3036 RMK A01 T00241062  RH  054%=      5-min Rain = 0
KPFS 120925Z 01004KT 02/M06 A3036 RMK A01 T00241061  RH  054%=      5-min Rain = 0
KPFS 120930Z 02004KT 02/M06 A3036 RMK A01 T00231061  RH  054%=      5-min Rain = 0
KPFS 120935Z 36003KT 02/M06 A3036 RMK A01 T00221062  RH  054%=      5-min Rain = 0
KPFS 120940Z 00003KT 02/M06 A3036 RMK A01 T00191064  RH  055%=      5-min Rain = 0
KPFS 120945Z 35004KT 02/M06 A3035 RMK A01 T00181063  RH  055%=      5-min Rain = 0
KPFS 120950Z 35005KT 02/M06 A3035 RMK A01 T00201061  RH  056%=      5-min Rain = 0
KPFS 120955Z 00004KT 02/M06 A3035 RMK A01 T00211061  RH  056%=      5-min Rain = 0
KPFS 121000Z 36004KT 02/M06 A3035 RMK A01 T00201060  RH  056%=      5-min Rain = 0
KPFS 121005Z 35004KT 02/M06 A3035 RMK A01 T00201061  RH  056%=      5-min Rain = 0
KPFS 121010Z 00003KT 02/M06 A3035 RMK A01 T00181062  RH  056%=      5-min Rain = 0
KPFS 121015Z 35004KT 02/M06 A3035 RMK A01 T00201060  RH  056%=      5-min Rain = 0
KPFS 121020Z 00004KT 02/M06 A3035 RMK A01 T00191059  RH  057%=      5-min Rain = 0
KPFS 121025Z 00003KT 02/M06 A3036 RMK A01 T00201060  RH  056%=      5-min Rain = 0
KPFS 121030Z 35003KT 02/M06 A3036 RMK A01 T00181060  RH  057%=      5-min Rain = 0
KPFS 121035Z 35004KT 02/M06 A3036 RMK A01 T00171061  RH  057%=      5-min Rain = 0
KPFS 121040Z 35003KT 02/M06 A3036 RMK A01 T00171059  RH  057%=      5-min Rain = 0
KPFS 121045Z 35003KT 02/M06 A3036 RMK A01 T00191058  RH  058%=      5-min Rain = 0
KPFS 121050Z 36004KT 02/M06 A3036 RMK A01 T00221056  RH  057%=      5-min Rain = 0
KPFS 121055Z 00004KT 02/M06 A3036 RMK A01 T00221055  RH  057%=      5-min Rain = 0
KPFS 121100Z 01005KT 02/M06 A3036 RMK A01 T00221055  RH  057%=      5-min Rain = 0
KPFS 121105Z 01005KT 02/M06 A3036 RMK A01 T00201056  RH  058%=      5-min Rain = 0
KPFS 121110Z 01004KT 02/M06 A3036 RMK A01 T00201056  RH  058%=      5-min Rain = 0
KPFS 121115Z 01003KT 02/M06 A3036 RMK A01 T00201055  RH  058%=      5-min Rain = 0
KPFS 121120Z 34002KT 02/M06 A3037 RMK A01 T00211055  RH  058%=      5-min Rain = 0
KPFS 121125Z 22003KT 01/M07 A3037 RMK A01 T00081068  RH  058%=      5-min Rain = 0
KPFS 121130Z 22003KT 00/07 A3037 RMK A01 T00000-67  RH  061%=      5-min Rain = 0
KPFS 121135Z 22002KT 00/M06 A3037 RMK A01 T00041062  RH  062%=      5-min Rain = 0
KPFS 121140Z 22002KT 01/M06 A3037 RMK A01 T00091059  RH  061%=      5-min Rain = 0
KPFS 121145Z 22001KT 01/M06 A3037 RMK A01 T00141055  RH  061%=      5-min Rain = 0
KPFS 121150Z 28000KT 02/M05 A3037 RMK A01 T00171053  RH  061%=      5-min Rain = 0
KPFS 121155Z 35002KT 02/M05 A3037 RMK A01 T00201049  RH  060%=      5-min Rain = 0
KPFS 121200Z 36003KT 02/M05 A3037 RMK A01 T00231050  RH  059%=      5-min Rain = 0
KPFS 121205Z 35003KT 02/M05 A3038 RMK A01 T00231049  RH  060%=      5-min Rain = 0
KPFS 121210Z 34003KT 02/M05 A3038 RMK A01 T00211049  RH  060%=      5-min Rain = 0
KPFS 121215Z 35003KT 02/M05 A3038 RMK A01 T00231049  RH  060%=      5-min Rain = 0
KPFS 121220Z 00003KT 02/M05 A3038 RMK A01 T00221049  RH  060%=      5-min Rain = 0
KPFS 121225Z 01004KT 02/M05 A3038 RMK A01 T00211049  RH  060%=      5-min Rain = 0
KPFS 121230Z 01004KT 02/M05 A3038 RMK A01 T00201049  RH  061%=      5-min Rain = 0
KPFS 121235Z 01004KT 02/M05 A3038 RMK A01 T00201049  RH  061%=      5-min Rain = 0
KPFS 121240Z 01004KT 02/M05 A3038 RMK A01 T00191049  RH  061%=      5-min Rain = 0
KPFS 121245Z 01004KT 02/M05 A3038 RMK A01 T00181049  RH  062%=      5-min Rain = 0
KPFS 121250Z 36003KT 02/M05 A3039 RMK A01 T00161051  RH  062%=      5-min Rain = 0
KPFS 121255Z 34002KT 01/M05 A3039 RMK A01 T00141051  RH  063%=      5-min Rain = 0
KPFS 121300Z 34002KT 02/M05 A3039 RMK A01 T00151050  RH  062%=      5-min Rain = 0
KPFS 121305Z 34003KT 01/M05 A3039 RMK A01 T00131052  RH  063%=      5-min Rain = 0
KPFS 121310Z 34002KT 01/M05 A3039 RMK A01 T00121050  RH  064%=      5-min Rain = 0
KPFS 121315Z 34003KT 01/M05 A304 RMK A01 T00121050  RH  064%=      5-min Rain = 0
KPFS 121320Z 35004KT 01/M05 A304 RMK A01 T00121048  RH  065%=      5-min Rain = 0
KPFS 121325Z 35004KT 01/M05 A304 RMK A01 T00141047  RH  065%=      5-min Rain = 0
KPFS 121330Z 35004KT 01/M05 A304 RMK A01 T00141047  RH  064%=      5-min Rain = 0
KPFS 121335Z 35005KT 01/M05 A304 RMK A01 T00131048  RH  065%=      5-min Rain = 0
KPFS 121340Z 01006KT 01/M05 A3041 RMK A01 T00131047  RH  065%=      5-min Rain = 0
KPFS 121345Z 01006KT 01/M05 A3041 RMK A01 T00141046  RH  065%=      5-min Rain = 0
KPFS 121350Z 03005KT 01/M05 A3041 RMK A01 T00141047  RH  065%=      5-min Rain = 0
KPFS 121355Z 03005KT 01/M05 A3041 RMK A01 T00131047  RH  065%=      5-min Rain = 0
KPFS 121400Z 03006KT 01/M05 A3041 RMK A01 T00141046  RH  065%=      5-min Rain = 0
KPFS 121405Z 03006KT 02/M05 A3041 RMK A01 T00161046  RH  064%=      5-min Rain = 0
KPFS 121410Z 03005KT 02/M04 A3041 RMK A01 T00211043  RH  063%=      5-min Rain = 0
KPFS 121415Z 02003KT 03/M04 A3042 RMK A01 T00281041  RH  061%=      5-min Rain = 0
KPFS 121420Z 01005KT 03/M04 A3042 RMK A01 T00331041  RH  059%=      5-min Rain = 0
KPFS 121425Z 01005KT 04/M04 A3042 RMK A01 T00371041  RH  057%=      5-min Rain = 0
KPFS 121430Z 01005KT 04/M04 A3042 RMK A01 T00411040  RH  056%=      5-min Rain = 0
KPFS 121435Z 00005KT 04/M04 A3042 RMK A01 T00441037  RH  056%=      5-min Rain = 0
KPFS 121440Z 02005KT 05/M04 A3042 RMK A01 T00501035  RH  055%=      5-min Rain = 0
KPFS 121445Z 02006KT 05/M04 A3042 RMK A01 T00501035  RH  055%=      5-min Rain = 0
KPFS 121450Z 01005KT 05/M03 A3042 RMK A01 T00511034  RH  055%=      5-min Rain = 0
KPFS 121455Z 01005KT 05/M03 A3042 RMK A01 T00541032  RH  054%=      5-min Rain = 0
KPFS 121500Z 01004KT 06/M03 A3042 RMK A01 T00571033  RH  053%=      5-min Rain = 0
KPFS 121505Z 01005KT 06/M03 A3042 RMK A01 T00601032  RH  052%=      5-min Rain = 0
KPFS 121510Z 36005KT 06/M03 A3042 RMK A01 T00611033  RH  051%=      5-min Rain = 0
KPFS 121515Z 00004KT 06/M03 A3042 RMK A01 T00631033  RH  051%=      5-min Rain = 0
KPFS 121520Z 03004KT 07/M03 A3042 RMK A01 T00651032  RH  050%=      5-min Rain = 0
KPFS 121525Z 03005KT 07/M03 A3042 RMK A01 T00671033  RH  050%=      5-min Rain = 0
KPFS 121530Z 04005KT 07/M03 A3042 RMK A01 T00681032  RH  050%=      5-min Rain = 0
KPFS 121535Z 04005KT 07/M03 A3042 RMK A01 T00701032  RH  049%=      5-min Rain = 0
KPFS 121540Z 02006KT 07/M03 A3042 RMK A01 T00711032  RH  048%=      5-min Rain = 0
KPFS 121545Z 04005G11KT 07/M03 A3042 RMK A01 T00721031  RH  048%=      5-min Rain = 0
KPFS 121550Z 05005KT 08/M03 A3042 RMK A01 T00771032  RH  047%=      5-min Rain = 0
KPFS 121555Z 02007KT 08/M03 A3042 RMK A01 T00781033  RH  046%=      5-min Rain = 0
KPFS 121600Z 02006KT 07/M03 A3042 RMK A01 T00741033  RH  047%=      5-min Rain = 0
KPFS 121605Z 04006KT 08/M03 A3042 RMK A01 T00761033  RH  047%=      5-min Rain = 0
KPFS 121610Z 04005KT 08/M03 A3042 RMK A01 T00811032  RH  045%=      5-min Rain = 0
KPFS 121615Z 05007KT 08/M03 A3042 RMK A01 T00801034  RH  045%=      5-min Rain = 0
KPFS 121620Z 06006G12KT 08/M03 A3042 RMK A01 T00831033  RH  044%=      5-min Rain = 0
KPFS 121625Z 06006G11KT 09/M03 A3042 RMK A01 T00851032  RH  044%=      5-min Rain = 0
KPFS 121630Z 02007KT 09/M03 A3042 RMK A01 T00871033  RH  043%=      5-min Rain = 0
KPFS 121635Z 01006KT 09/M03 A3042 RMK A01 T00861033  RH  043%=      5-min Rain = 0
KPFS 121640Z 03005G10KT 09/M03 A3042 RMK A01 T00891033  RH  043%=      5-min Rain = 0
KPFS 121645Z 03005KT 09/M03 A3042 RMK A01 T00901034  RH  042%=      5-min Rain = 0
KPFS 121650Z 07003KT 09/M03 A3042 RMK A01 T00911034  RH  041%=      5-min Rain = 0
KPFS 121655Z 04006KT 10/M04 A3042 RMK A01 T00951035  RH  040%=      5-min Rain = 0
KPFS 121700Z 03004G9KT 09/M04 A3042 RMK A01 T00931036  RH  040%=      5-min Rain = 0
KPFS 121705Z 00004G9KT 10/M04 A3042 RMK A01 T00981036  RH  039%=      5-min Rain = 0
KPFS 121710Z 01004KT 10/M04 A3041 RMK A01 T01001035  RH  039%=      5-min Rain = 0
KPFS 121715Z 01006KT 10/M04 A3041 RMK A01 T01001038  RH  038%=      5-min Rain = 0
KPFS 121720Z 34002G11KT 10/M04 A3041 RMK A01 T00961036  RH  040%=      5-min Rain = 0
KPFS 121725Z 01007KT 11/M04 A3041 RMK A01 T01081036  RH  037%=      5-min Rain = 0
KPFS 121730Z 01007KT 11/M04 A304 RMK A01 T01081038  RH  036%=      5-min Rain = 0
KPFS 121735Z 32005KT 10/M04 A304 RMK A01 T01031039  RH  037%=      5-min Rain = 0
KPFS 121740Z 02004G10KT 11/M04 A304 RMK A01 T01091037  RH  036%=      5-min Rain = 0
KPFS 121745Z 02006G11KT 11/M04 A304 RMK A01 T01071040  RH  036%=      5-min Rain = 0
KPFS 121750Z 34003G8KT 11/M04 A3039 RMK A01 T01091039  RH  036%=      5-min Rain = 0
KPFS 121755Z 34006KT 11/M04 A3039 RMK A01 T01121039  RH  035%=      5-min Rain = 0
KPFS 121800Z 35004KT 11/M04 A3038 RMK A01 T01141039  RH  034%=      5-min Rain = 0
KPFS 121805Z 06004KT 12/M04 A3038 RMK A01 T01181039  RH  033%=      5-min Rain = 0
KPFS 121810Z 01006KT 12/M04 A3038 RMK A01 T01151041  RH  034%=      5-min Rain = 0
KPFS 121815Z 35004G9KT 12/M04 A3037 RMK A01 T01181041  RH  033%=      5-min Rain = 0
KPFS 121820Z 35004KT 12/M04 A3037 RMK A01 T01191042  RH  033%=      5-min Rain = 0
KPFS 121825Z 34002KT 12/M04 A3037 RMK A01 T01171041  RH  033%=      5-min Rain = 0
KPFS 121830Z 04007KT 13/M04 A3037 RMK A01 T01291041  RH  031%=      5-min Rain = 0
KPFS 121835Z 03004KT 13/M04 A3037 RMK A01 T01261042  RH  031%=      5-min Rain = 0
KPFS 121840Z 02002G7KT 13/M04 A3036 RMK A01 T01261044  RH  031%=      5-min Rain = 0
KPFS 121845Z 00004KT 12/M05 A3036 RMK A01 T01231047  RH  030%=      5-min Rain = 0
KPFS 121850Z 03003KT 12/M05 A3035 RMK A01 T01241046  RH  030%=      5-min Rain = 0
KPFS 121855Z 02003G8KT 13/M05 A3035 RMK A01 T01291045  RH  030%=      5-min Rain = 0
KPFS 121900Z 05007KT 14/M05 A3035 RMK A01 T01351045  RH  029%=      5-min Rain = 0
KPFS 121905Z 03004KT 14/M05 A3034 RMK A01 T01371046  RH  028%=      5-min Rain = 0
KPFS 121910Z 00004G10KT 13/M05 A3034 RMK A01 T01341047  RH  028%=      5-min Rain = 0
KPFS 121915Z 02005KT 14/M05 A3033 RMK A01 T01401050  RH  027%=      5-min Rain = 0
KPFS 121920Z 03003KT 13/M05 A3033 RMK A01 T01321052  RH  028%=      5-min Rain = 0
KPFS 121925Z 32003KT 13/M05 A3033 RMK A01 T01341049  RH  028%=      5-min Rain = 0
KPFS 121930Z 05003KT 14/M05 A3033 RMK A01 T01371049  RH  027%=      5-min Rain = 0
KPFS 121935Z 02004G9KT 14/M05 A3032 RMK A01 T01391050  RH  027%=      5-min Rain = 0
KPFS 121940Z 01004KT 14/M05 A3032 RMK A01 T01411050  RH  027%=      5-min Rain = 0
KPFS 121945Z 07003KT 14/M05 A3032 RMK A01 T01441049  RH  026%=      5-min Rain = 0
KPFS 121950Z 34004G10KT 15/M05 A3031 RMK A01 T01471048  RH  026%=      5-min Rain = 0
KPFS 121955Z 02006KT 14/M05 A3031 RMK A01 T01441049  RH  026%=      5-min Rain = 0
KPFS 122000Z 33002KT 14/M05 A3031 RMK A01 T01431047  RH  027%=      5-min Rain = 0
KPFS 122005Z 06004KT 15/M05 A3031 RMK A01 T01451048  RH  026%=      5-min Rain = 0
KPFS 122010Z 04003KT 14/M05 A3031 RMK A01 T01401049  RH  027%=      5-min Rain = 0
KPFS 122015Z 05004KT 14/M05 A303 RMK A01 T01411049  RH  027%=      5-min Rain = 0
KPFS 122020Z 35005KT 15/M05 A303 RMK A01 T01481052  RH  025%=      5-min Rain = 0
KPFS 122025Z 01007KT 15/M05 A303 RMK A01 T01491053  RH  025%=      5-min Rain = 0
KPFS 122030Z 00005G10KT 15/M05 A303 RMK A01 T01451054  RH  025%=      5-min Rain = 0
KPFS 122035Z 33005KT 15/M05 A303 RMK A01 T01481054  RH  025%=      5-min Rain = 0
KPFS 122040Z 33002KT 15/M06 A3029 RMK A01 T01481056  RH  024%=      5-min Rain = 0
KPFS 122045Z 27003KT 15/M06 A3029 RMK A01 T01471055  RH  024%=      5-min Rain = 0
KPFS 122050Z 35004G9KT 15/M05 A3028 RMK A01 T01491054  RH  024%=      5-min Rain = 0
KPFS 122055Z 01006KT 15/M05 A3028 RMK A01 T01531054  RH  024%=      5-min Rain = 0
KPFS 122100Z 15002KT 15/M06 A3028 RMK A01 T01491055  RH  024%=      5-min Rain = 0
KPFS 122105Z 20003KT 15/M06 A3028 RMK A01 T01481056  RH  024%=      5-min Rain = 0
KPFS 122110Z 32005KT 15/M06 A3027 RMK A01 T01541058  RH  023%=      5-min Rain = 0
KPFS 122115Z 31005KT 16/M06 A3027 RMK A01 T01551060  RH  022%=      5-min Rain = 0
KPFS 122120Z 33005KT 15/M06 A3027 RMK A01 T01521061  RH  023%=      5-min Rain = 0
KPFS 122125Z 33004KT 15/M06 A3027 RMK A01 T01531061  RH  023%=      5-min Rain = 0
KPFS 122130Z 29003KT 15/M06 A3026 RMK A01 T01521062  RH  023%=      5-min Rain = 0
KPFS 122135Z 34002KT 16/M06 A3026 RMK A01 T01561062  RH  022%=      5-min Rain = 0
KPFS 122140Z 05003KT 16/M06 A3026 RMK A01 T01551064  RH  022%=      5-min Rain = 0
KPFS 122145Z 06004KT 15/M06 A3026 RMK A01 T01531063  RH  022%=      5-min Rain = 0
KPFS 122150Z 06002KT 16/M06 A3025 RMK A01 T01551062  RH  022%=      5-min Rain = 0
KPFS 122155Z 19001KT 16/M06 A3025 RMK A01 T01641062  RH  021%=      5-min Rain = 0
KPFS 122200Z 07005G10KT 16/M06 A3025 RMK A01 T01631062  RH  021%=      5-min Rain = 0
KPFS 122205Z 10002KT 16/M06 A3024 RMK A01 T01631062  RH  021%=      5-min Rain = 0
KPFS 122210Z 14004KT 16/M06 A3024 RMK A01 T01621063  RH  021%=      5-min Rain = 0
KPFS 122215Z 12002KT 16/M06 A3024 RMK A01 T01621062  RH  021%=      5-min Rain = 0
KPFS 122220Z 12004G9KT 17/M06 A3024 RMK A01 T01651062  RH  021%=      5-min Rain = 0
KPFS 122225Z 10006KT 16/M06 A3024 RMK A01 T01601064  RH  021%=      5-min Rain = 0
KPFS 122230Z 11004KT 16/M06 A3023 RMK A01 T01591063  RH  021%=      5-min Rain = 0
KPFS 122235Z 09004KT 16/M06 A3023 RMK A01 T01591064  RH  021%=      5-min Rain = 0
KPFS 122240Z 13003KT 16/M07 A3023 RMK A01 T01561065  RH  021%=      5-min Rain = 0
KPFS 122245Z 14002KT 16/M07 A3023 RMK A01 T01551065  RH  022%=      5-min Rain = 0
KPFS 122250Z 14003KT 16/M07 A3022 RMK A01 T01581067  RH  021%=      5-min Rain = 0
KPFS 122255Z 11002KT 16/M07 A3022 RMK A01 T01591070  RH  020%=      5-min Rain = 0
KPFS 122300Z 09003KT 16/M07 A3022 RMK A01 T01601069  RH  020%=      5-min Rain = 0
KPFS 122305Z 06004KT 16/M07 A3022 RMK A01 T01561070  RH  021%=      5-min Rain = 0
KPFS 122310Z 11003G10KT 16/M07 A3022 RMK A01 T01571069  RH  021%=      5-min Rain = 0
KPFS 122315Z 07003G10KT 16/M07 A3022 RMK A01 T01571071  RH  020%=      5-min Rain = 0
KPFS 122320Z 16003KT 16/M07 A3022 RMK A01 T01581068  RH  021%=      5-min Rain = 0
KPFS 122325Z 11006KT 16/M07 A3022 RMK A01 T01571070  RH  021%=      5-min Rain = 0
KPFS 122330Z 12004KT 16/M07 A3022 RMK A01 T01571070  RH  021%=      5-min Rain = 0
KPFS 122335Z 14005KT 15/M07 A3022 RMK A01 T01541069  RH  021%=      5-min Rain = 0
KPFS 122340Z 14005KT 15/M07 A3021 RMK A01 T01521067  RH  022%=      5-min Rain = 0
KPFS 122345Z 15006KT 15/M07 A3021 RMK A01 T01511066  RH  022%=      5-min Rain = 0
KPFS 122350Z 12005KT 15/M07 A3021 RMK A01 T01491066  RH  022%=      5-min Rain = 0
KPFS 122355Z 10005KT 15/M07 A3021 RMK A01 T01461066  RH  023%=      5-min Rain = 0
KPFS 130000Z 09005KT 14/M07 A3021 RMK A01 T01431067  RH  023%=      5-min Rain = 0
KPFS 130005Z 10005KT 14/M07 A3021 RMK A01 T01421067  RH  023%=      5-min Rain = 0
KPFS 130010Z 11005KT 14/M07 A3021 RMK A01 T01421067  RH  023%=      5-min Rain = 0
KPFS 130015Z 11005KT 14/M07 A3021 RMK A01 T01411068  RH  023%=      5-min Rain = 0
KPFS 130020Z 12006KT 14/M07 A3021 RMK A01 T01401068  RH  023%=      5-min Rain = 0
KPFS 130025Z 12006KT 14/M07 A3021 RMK A01 T01371068  RH  024%=      5-min Rain = 0
KPFS 130030Z 12006KT 14/M07 A3022 RMK A01 T01351068  RH  024%=      5-min Rain = 0
KPFS 130035Z 11006KT 13/M07 A3022 RMK A01 T01311069  RH  024%=      5-min Rain = 0
KPFS 130040Z 12006KT 13/M07 A3022 RMK A01 T01291069  RH  025%=      5-min Rain = 0
KPFS 130045Z 12006KT 12/M07 A3022 RMK A01 T01241070  RH  025%=      5-min Rain = 0
KPFS 130050Z 12006KT 12/M07 A3022 RMK A01 T01221071  RH  026%=      5-min Rain = 0
KPFS 130055Z 12006KT 12/M07 A3022 RMK A01 T01191071  RH  026%=      5-min Rain = 0
KPFS 130100Z 12007KT 12/M07 A3022 RMK A01 T01171071  RH  026%=      5-min Rain = 0
KPFS 130105Z 12007KT 12/M07 A3022 RMK A01 T01171070  RH  027%=      5-min Rain = 0
KPFS 130110Z 11008KT 12/M07 A3022 RMK A01 T01161068  RH  027%=      5-min Rain = 0
KPFS 130115Z 12008KT 11/M07 A3023 RMK A01 T01111068  RH  028%=      5-min Rain = 0
KPFS 130120Z 12008KT 11/M07 A3023 RMK A01 T01071066  RH  029%=      5-min Rain = 0
KPFS 130125Z 11009KT 11/M07 A3023 RMK A01 T01061065  RH  030%=      5-min Rain = 0
KPFS 130130Z 11009KT 11/M06 A3023 RMK A01 T01061064  RH  030%=      5-min Rain = 0
KPFS 130135Z 11009KT 11/M06 A3023 RMK A01 T01051064  RH  030%=      5-min Rain = 0
KPFS 130140Z 11009KT 10/M07 A3023 RMK A01 T01041065  RH  030%=      5-min Rain = 0
KPFS 130145Z 11009KT 10/M07 A3023 RMK A01 T01011065  RH  031%=      5-min Rain = 0
KPFS 130150Z 11009KT 10/M07 A3023 RMK A01 T00991066  RH  031%=      5-min Rain = 0
KPFS 130155Z 12009KT 10/M07 A3024 RMK A01 T00971066  RH  032%=      5-min Rain = 0
KPFS 130200Z 11009KT 09/M07 A3024 RMK A01 T00941066  RH  032%=      5-min Rain = 0
KPFS 130205Z 11009KT 09/M07 A3024 RMK A01 T00941066  RH  032%=      5-min Rain = 0
KPFS 130210Z 11009KT 09/M07 A3024 RMK A01 T00941066  RH  032%=      5-min Rain = 0
KPFS 130215Z 11009KT 09/M07 A3024 RMK A01 T00931066  RH  032%=      5-min Rain = 0
KPFS 130220Z 11009KT 09/M07 A3024 RMK A01 T00921065  RH  033%=      5-min Rain = 0
KPFS 130225Z 12009KT 09/M07 A3024 RMK A01 T00891065  RH  033%=      5-min Rain = 0
KPFS 130230Z 12009KT 09/M07 A3024 RMK A01 T00871065  RH  034%=      5-min Rain = 0
KPFS 130235Z 11009KT 09/M06 A3024 RMK A01 T00881064  RH  034%=      5-min Rain = 0
KPFS 130240Z 11009KT 09/M06 A3024 RMK A01 T00871063  RH  034%=      5-min Rain = 0
KPFS 130245Z 11009KT 09/M06 A3024 RMK A01 T00851063  RH  035%=      5-min Rain = 0
KPFS 130250Z 12009KT 08/M06 A3024 RMK A01 T00841063  RH  035%=      5-min Rain = 0
KPFS 130255Z 12009KT 08/M06 A3024 RMK A01 T00821063  RH  036%=      5-min Rain = 0
KPFS 130300Z 11009KT 09/M06 A3024 RMK A01 T00851062  RH  035%=      5-min Rain = 0
KPFS 130305Z 11009KT 09/M06 A3025 RMK A01 T00861062  RH  035%=      5-min Rain = 0
KPFS 130310Z 12009KT 08/M06 A3025 RMK A01 T00811063  RH  036%=      5-min Rain = 0
KPFS 130315Z 12009KT 08/M06 A3025 RMK A01 T00791063  RH  037%=      5-min Rain = 0
KPFS 130320Z 12008KT 08/M06 A3025 RMK A01 T00771063  RH  037%=      5-min Rain = 0
KPFS 130325Z 12008KT 08/M06 A3025 RMK A01 T00761062  RH  037%=      5-min Rain = 0
KPFS 130330Z 12008KT 08/M06 A3025 RMK A01 T00751062  RH  038%=      5-min Rain = 0
KPFS 130335Z 13008KT 07/M06 A3025 RMK A01 T00721063  RH  038%=      5-min Rain = 0
KPFS 130340Z 13007KT 07/M06 A3025 RMK A01 T00691063  RH  039%=      5-min Rain = 0
KPFS 130345Z 12007KT 07/M06 A3025 RMK A01 T00681063  RH  039%=      5-min Rain = 0
KPFS 130350Z 12007KT 07/M06 A3025 RMK A01 T00681062  RH  039%=      5-min Rain = 0
KPFS 130355Z 12007KT 07/M06 A3025 RMK A01 T00671062  RH  040%=      5-min Rain = 0
KPFS 130400Z 12007KT 07/M06 A3025 RMK A01 T00661062  RH  040%=      5-min Rain = 0
KPFS 130405Z 12007KT 07/M06 A3025 RMK A01 T00651062  RH  040%=      5-min Rain = 0
KPFS 130410Z 12007KT 07/M06 A3025 RMK A01 T00651062  RH  040%=      5-min Rain = 0
KPFS 130415Z 12007KT 07/M06 A3025 RMK A01 T00671061  RH  040%=      5-min Rain = 0
KPFS 130420Z 12007KT 07/M06 A3025 RMK A01 T00701061  RH  039%=      5-min Rain = 0
KPFS 130425Z 12007KT 07/M06 A3025 RMK A01 T00691061  RH  039%=      5-min Rain = 0
KPFS 130430Z 12007KT 07/M06 A3025 RMK A01 T00701060  RH  039%=      5-min Rain = 0
KPFS 130435Z 11007KT 07/M06 A3025 RMK A01 T00711060  RH  039%=      5-min Rain = 0
KPFS 130440Z 11007KT 08/M06 A3025 RMK A01 T00751058  RH  039%=      5-min Rain = 0
KPFS 130445Z 11007KT 08/M06 A3025 RMK A01 T00751059  RH  038%=      5-min Rain = 0
KPFS 130450Z 11006KT 07/M06 A3025 RMK A01 T00731059  RH  039%=      5-min Rain = 0
KPFS 130455Z 12004KT 07/M06 A3025 RMK A01 T00711060  RH  039%=      5-min Rain = 0

Page generated in 0.009 seconds.